createdAt,value
2017-12-29T00:00:43.383Z,101288.37
2017-12-29T00:03:09.283Z,101292.99
2017-12-29T00:05:35.227Z,101299.02
2017-12-29T00:08:01.147Z,101294.43
2017-12-29T00:10:27.059Z,101301.78
2017-12-29T00:12:52.954Z,101298.55
2017-12-29T00:15:18.880Z,101299.38
2017-12-29T00:17:44.803Z,101308.10
2017-12-29T00:20:10.731Z,101313.87
2017-12-29T00:22:36.630Z,101312.25
2017-12-29T00:25:02.566Z,101314.48
2017-12-29T00:27:28.517Z,101315.58
2017-12-29T00:29:54.434Z,101313.65
2017-12-29T00:32:20.375Z,101319.70
2017-12-29T00:34:46.266Z,101321.07
2017-12-29T00:37:12.170Z,101318.67
2017-12-29T00:39:38.130Z,101324.40
2017-12-29T00:42:04.019Z,101322.50
2017-12-29T00:44:29.948Z,101325.51
2017-12-29T00:46:55.848Z,101317.91
2017-12-29T00:49:21.755Z,101314.90
2017-12-29T00:51:47.658Z,101314.07
2017-12-29T00:54:13.574Z,101324.19
2017-12-29T00:56:39.471Z,101325.83
2017-12-29T00:59:06.642Z,101319.08
2017-12-29T01:01:32.543Z,101330.24
2017-12-29T01:03:58.435Z,101336.80
2017-12-29T01:06:24.346Z,101347.44
2017-12-29T01:08:50.242Z,101336.30
2017-12-29T01:11:16.154Z,101346.41
2017-12-29T01:13:42.058Z,101346.69
2017-12-29T01:16:07.962Z,101349.16
2017-12-29T01:18:33.888Z,101356.55
2017-12-29T01:20:59.795Z,101353.00
2017-12-29T01:23:25.706Z,101354.93
2017-12-29T01:25:51.592Z,101360.66
2017-12-29T01:28:17.526Z,101362.09
2017-12-29T01:30:43.437Z,101366.97
2017-12-29T01:33:09.342Z,101370.80
2017-12-29T01:35:35.272Z,101368.65
2017-12-29T01:38:01.191Z,101367.82
2017-12-29T01:40:27.082Z,101368.40
2017-12-29T01:42:52.970Z,101371.98
2017-12-29T01:45:18.891Z,101378.72
2017-12-29T01:47:44.786Z,101373.01
2017-12-29T01:50:10.719Z,101377.17
2017-12-29T01:52:36.668Z,101379.65
2017-12-29T01:55:02.716Z,101388.07
2017-12-29T01:57:28.615Z,101388.35
2017-12-29T01:59:54.506Z,101388.35
2017-12-29T02:02:20.432Z,101389.46
2017-12-29T02:04:46.316Z,101390.31
2017-12-29T02:07:12.250Z,101385.69
2017-12-29T02:12:08.786Z,101385.19
2017-12-29T02:14:34.685Z,101388.18
2017-12-29T02:17:00.575Z,101386.82
2017-12-29T02:19:26.488Z,101389.87
2017-12-29T02:21:52.366Z,101393.96
2017-12-29T02:24:18.294Z,101395.59
2017-12-29T02:26:44.203Z,101393.70
2017-12-29T02:29:10.082Z,101404.60
2017-12-29T02:31:35.998Z,101398.67
2017-12-29T02:34:01.915Z,101400.57
2017-12-29T02:36:27.938Z,101399.20
2017-12-29T02:38:54.165Z,101400.05
2017-12-29T02:41:20.103Z,101402.78
2017-12-29T02:43:45.991Z,101402.27
2017-12-29T02:46:11.901Z,101402.01
2017-12-29T02:48:38.026Z,101405.31
2017-12-29T02:51:03.956Z,101401.22
2017-12-29T02:53:29.846Z,101400.18
2017-12-29T02:55:55.927Z,101406.99
2017-12-29T02:58:21.822Z,101415.70
2017-12-29T03:00:47.730Z,101414.08
2017-12-29T03:03:13.649Z,101414.08
2017-12-29T03:05:39.575Z,101415.18
2017-12-29T03:10:35.946Z,101405.97
2017-12-29T03:13:01.839Z,101405.71
2017-12-29T03:15:27.767Z,101405.46
2017-12-29T03:17:53.663Z,101411.69
2017-12-29T03:20:19.619Z,101407.08
2017-12-29T03:22:45.542Z,101416.35
2017-12-29T03:25:11.776Z,101405.99
2017-12-29T03:27:37.666Z,101413.12
2017-12-29T03:30:03.601Z,101408.78
2017-12-29T03:32:29.503Z,101410.67
2017-12-29T03:34:56.003Z,101418.05
2017-12-29T03:37:21.894Z,101417.22
2017-12-29T03:39:47.815Z,101413.20
2017-12-29T03:42:13.732Z,101414.82
2017-12-29T03:44:39.639Z,101414.57
2017-12-29T03:47:05.562Z,101416.46
2017-12-29T03:49:31.983Z,101415.92
2017-12-29T03:51:57.894Z,101415.42
2017-12-29T03:54:23.778Z,101421.12
2017-12-29T03:56:49.705Z,101418.14
2017-12-29T03:59:15.627Z,101411.32
2017-12-29T04:01:41.532Z,101413.54
2017-12-29T04:04:07.601Z,101415.44
2017-12-29T04:06:33.482Z,101418.73
2017-12-29T04:08:59.383Z,101413.03
2017-12-29T04:11:25.307Z,101317.04
2017-12-29T04:13:51.201Z,101408.69
2017-12-29T04:16:17.087Z,101402.41
2017-12-29T04:18:43.007Z,101395.60
2017-12-29T04:21:08.919Z,101391.00
2017-12-29T04:23:34.826Z,101383.42
2017-12-29T04:26:00.716Z,101390.75
2017-12-29T04:28:26.622Z,101382.06
2017-12-29T04:30:52.543Z,101383.94
2017-12-29T04:33:18.448Z,101391.33
2017-12-29T04:35:44.359Z,101397.56
2017-12-29T04:38:10.247Z,101398.99
2017-12-29T04:40:36.163Z,101404.70
2017-12-29T04:43:02.071Z,101404.18
2017-12-29T04:45:27.979Z,101409.62
2017-12-29T04:47:54.055Z,101406.91
2017-12-29T04:50:19.938Z,101405.80
2017-12-29T04:52:45.878Z,101408.53
2017-12-29T04:55:11.766Z,101406.65
2017-12-29T04:57:37.679Z,101405.29
2017-12-29T05:00:03.599Z,101406.39
2017-12-29T05:02:29.495Z,101412.09
2017-12-29T05:04:55.414Z,101408.51
2017-12-29T05:07:21.318Z,101424.85
2017-12-29T05:09:47.439Z,101429.44
2017-12-29T05:12:13.946Z,101425.30
2017-12-29T05:14:39.865Z,101421.99
2017-12-29T05:17:05.862Z,101424.37
2017-12-29T05:19:31.754Z,101434.14
2017-12-29T05:21:57.666Z,101439.25
2017-12-29T05:24:23.643Z,101435.36
2017-12-29T05:26:49.506Z,101431.19
2017-12-29T05:29:15.391Z,101426.76
2017-12-29T05:31:41.306Z,101436.44
2017-12-29T05:34:07.527Z,101434.99
2017-12-29T05:36:33.431Z,101435.44
2017-12-29T05:38:59.327Z,101438.07
2017-12-29T05:41:25.227Z,101437.73
2017-12-29T05:43:51.110Z,101438.74
2017-12-29T05:46:17.027Z,101431.59
2017-12-29T05:48:42.944Z,101436.15
2017-12-29T05:51:08.823Z,101437.49
2017-12-29T05:53:34.775Z,101437.15
2017-12-29T05:56:00.674Z,101435.97
2017-12-29T05:58:26.677Z,101440.82
2017-12-29T06:00:52.620Z,101444.57
2017-12-29T06:03:18.511Z,101449.42
2017-12-29T06:05:44.432Z,101443.11
2017-12-29T06:08:10.331Z,101445.48
2017-12-29T06:10:36.251Z,101444.88
2017-12-29T06:13:02.171Z,101444.27
2017-12-29T06:15:28.080Z,101450.49
2017-12-29T06:17:54.059Z,101449.31
2017-12-29T06:20:19.972Z,101451.43
2017-12-29T06:22:45.914Z,101449.53
2017-12-29T06:25:11.807Z,101450.30
2017-12-29T06:27:37.699Z,101449.69
2017-12-29T06:30:03.631Z,101450.20
2017-12-29T06:32:29.518Z,101449.27
2017-12-29T06:34:55.439Z,101455.76
2017-12-29T06:37:21.335Z,101453.54
2017-12-29T06:39:47.226Z,101451.89
2017-12-29T06:42:13.145Z,101455.66
2017-12-29T06:44:39.039Z,101454.02
2017-12-29T06:47:04.963Z,101451.54
2017-12-29T06:49:30.863Z,101451.54
2017-12-29T06:51:56.772Z,101440.05
2017-12-29T06:54:22.930Z,101441.13
2017-12-29T06:56:48.828Z,101440.02
2017-12-29T06:59:14.719Z,101445.40
2017-12-29T07:01:40.663Z,101441.57
2017-12-29T07:04:06.587Z,101444.01
2017-12-29T07:06:32.485Z,101451.62
2017-12-29T07:08:58.411Z,101450.22
2017-12-29T07:11:24.339Z,101449.11
2017-12-29T07:13:50.238Z,101445.52
2017-12-29T07:16:16.154Z,101443.90
2017-12-29T07:18:42.038Z,101444.94
2017-12-29T07:21:07.959Z,101443.83
2017-12-29T07:23:33.843Z,101451.16
2017-12-29T07:25:59.767Z,101444.30
2017-12-29T07:28:25.658Z,101452.74
2017-12-29T07:30:51.548Z,101446.38
2017-12-29T07:33:17.620Z,101447.45
2017-12-29T07:35:43.548Z,101440.06
2017-12-29T07:38:09.447Z,101441.42
2017-12-29T07:40:35.357Z,101445.23
2017-12-29T07:43:01.259Z,101455.89
2017-12-29T07:45:27.178Z,101457.26
2017-12-29T07:47:53.093Z,101471.69
2017-12-29T07:50:18.990Z,101473.39
2017-12-29T07:52:45.042Z,101475.79
2017-12-29T07:55:10.942Z,101478.77
2017-12-29T07:57:36.834Z,101474.68
2017-12-29T08:00:02.823Z,101477.16
2017-12-29T08:02:28.728Z,101478.52
2017-12-29T08:04:54.639Z,101482.04
2017-12-29T08:07:20.575Z,101477.41
2017-12-29T08:09:46.475Z,101478.78
2017-12-29T08:12:12.371Z,101480.39
2017-12-29T08:14:38.286Z,101482.01
2017-12-29T08:17:04.174Z,101483.91
2017-12-29T08:19:30.087Z,101486.89
2017-12-29T08:21:55.991Z,101482.79
2017-12-29T08:24:21.917Z,101481.43
2017-12-29T08:26:47.823Z,101471.59
2017-12-29T08:29:13.762Z,101467.50
2017-12-29T08:31:39.702Z,101473.21
2017-12-29T08:34:05.682Z,101467.75
2017-12-29T08:36:31.646Z,101473.46
2017-12-29T08:38:57.543Z,101469.03
2017-12-29T08:41:23.439Z,101471.23
2017-12-29T08:43:49.360Z,101468.50
2017-12-29T08:46:15.242Z,101467.39
2017-12-29T08:48:41.167Z,101462.71
2017-12-29T08:51:07.099Z,101460.24
2017-12-29T08:53:32.994Z,101458.88
2017-12-29T08:55:58.943Z,101453.66
2017-12-29T08:58:24.854Z,101454.74
2017-12-29T09:00:50.782Z,101453.05
2017-12-29T09:03:16.670Z,101460.63
2017-12-29T09:05:42.567Z,101454.64
2017-12-29T09:08:08.523Z,101459.73
2017-12-29T09:10:34.414Z,101453.62
2017-12-29T09:13:00.348Z,101457.67
2017-12-29T09:15:26.277Z,101461.02
2017-12-29T09:17:52.183Z,101463.50
2017-12-29T09:20:18.074Z,101455.06
2017-12-29T09:22:44.304Z,101462.71
2017-12-29T09:25:10.204Z,101461.89
2017-12-29T09:27:36.107Z,101465.98
2017-12-29T09:30:02.055Z,101460.76
2017-12-29T09:32:27.963Z,101465.45
2017-12-29T09:34:53.871Z,101463.75
2017-12-29T09:37:19.775Z,101451.46
2017-12-29T09:39:45.723Z,101442.70
2017-12-29T09:42:11.618Z,101432.60
2017-12-29T09:44:37.507Z,101428.50
2017-12-29T09:47:03.435Z,101419.73
2017-12-29T09:49:29.343Z,101421.34
2017-12-29T09:51:55.322Z,101420.23
2017-12-29T09:54:21.257Z,101409.88
2017-12-29T09:56:47.154Z,101405.46
2017-12-29T09:59:13.059Z,101406.54
2017-12-29T10:01:39.001Z,101403.81
2017-12-29T10:04:04.896Z,101398.02
2017-12-29T10:06:30.821Z,101386.56
2017-12-29T10:08:56.927Z,101379.39
2017-12-29T10:11:22.813Z,101372.03
2017-12-29T10:13:48.731Z,101366.57
2017-12-29T10:16:14.635Z,101357.79
2017-12-29T10:18:40.554Z,101358.04
2017-12-29T10:21:06.586Z,101357.75
2017-12-29T10:23:32.504Z,101361.27
2017-12-29T10:25:58.435Z,101349.23
2017-12-29T10:28:24.326Z,101340.50
2017-12-29T10:30:50.501Z,101339.22
2017-12-29T10:33:16.719Z,101338.60
2017-12-29T10:35:42.863Z,101331.20
2017-12-29T10:38:08.763Z,101322.13
2017-12-29T10:40:34.672Z,101326.59
2017-12-29T10:43:00.595Z,101319.43
2017-12-29T10:45:26.575Z,101310.94
2017-12-29T10:47:52.494Z,101312.31
2017-12-29T10:50:18.400Z,101314.17
2017-12-29T10:52:44.283Z,101315.53
2017-12-29T10:55:10.208Z,101307.34
2017-12-29T10:57:36.103Z,101318.56
2017-12-29T11:00:02.073Z,101312.06
2017-12-29T11:02:28.055Z,101311.82
2017-12-29T11:04:54.051Z,101312.84
2017-12-29T11:07:20.053Z,101301.88
2017-12-29T11:09:46.047Z,101299.39
2017-12-29T11:12:12.054Z,101291.19
2017-12-29T11:14:38.095Z,101299.14
2017-12-29T11:17:04.015Z,101301.00
2017-12-29T11:19:29.983Z,101291.44
2017-12-29T11:21:55.923Z,101295.34
2017-12-29T11:24:21.895Z,101294.84
2017-12-29T11:26:47.915Z,101280.93
2017-12-29T11:29:13.838Z,101275.46
2017-12-29T11:31:39.898Z,101269.76
2017-12-29T11:34:05.847Z,101264.87
2017-12-29T11:36:31.806Z,101263.51
2017-12-29T11:38:57.734Z,101265.03
2017-12-29T11:41:23.642Z,101262.25
2017-12-29T11:43:49.579Z,101255.67
2017-12-29T11:46:15.503Z,101252.85
2017-12-29T11:48:41.394Z,101254.70
2017-12-29T11:51:07.319Z,101242.16
2017-12-29T11:53:33.246Z,101230.74
2017-12-29T11:55:59.587Z,101238.16
2017-12-29T11:58:26.592Z,101233.23
2017-12-29T12:00:52.642Z,101221.27
2017-12-29T12:03:18.562Z,101224.49
2017-12-29T12:05:44.536Z,101218.29
2017-12-29T12:08:10.508Z,101212.33
2017-12-29T12:10:36.540Z,101204.14
2017-12-29T12:13:02.495Z,101200.83
2017-12-29T12:15:28.412Z,101196.19
2017-12-29T12:17:54.379Z,101193.99
2017-12-29T12:20:20.334Z,101182.57
2017-12-29T12:22:46.263Z,101179.16
2017-12-29T12:25:12.213Z,101175.35
2017-12-29T12:27:38.167Z,101158.18
2017-12-29T12:30:04.104Z,101154.62
2017-12-29T12:32:30.077Z,101149.15
2017-12-29T12:34:56.097Z,101140.96
2017-12-29T12:37:22.028Z,101133.59
2017-12-29T12:39:48.014Z,101131.99
2017-12-29T12:42:13.939Z,101123.45
2017-12-29T12:44:39.915Z,101110.91
2017-12-29T12:47:05.814Z,101112.76
2017-12-29T12:49:31.813Z,101099.69
2017-12-29T12:51:57.825Z,101093.65
2017-12-29T12:54:23.766Z,101092.27
2017-12-29T12:56:49.735Z,101094.47
2017-12-29T12:59:15.668Z,101093.35
2017-12-29T13:01:41.630Z,101104.27
2017-12-29T13:04:07.546Z,101097.10
2017-12-29T13:06:33.504Z,101095.15
2017-12-29T13:08:59.575Z,101095.74
2017-12-29T13:11:25.514Z,101096.52
2017-12-29T13:13:51.459Z,101100.32
2017-12-29T13:16:17.386Z,101092.66
2017-12-29T13:18:43.363Z,101085.83
2017-12-29T13:21:09.282Z,101081.74
2017-12-29T13:23:35.251Z,101083.10
2017-12-29T13:26:01.251Z,101072.76
2017-12-29T13:28:27.314Z,101069.20
2017-12-29T13:30:53.286Z,101066.47
2017-12-29T13:33:19.245Z,101066.71
2017-12-29T13:35:45.171Z,101052.27
2017-12-29T13:38:11.118Z,101048.17
2017-12-29T13:40:37.246Z,101042.37
2017-12-29T13:43:04.252Z,101036.37
2017-12-29T13:45:30.191Z,101030.31
2017-12-29T13:47:56.162Z,101024.07
2017-12-29T13:50:22.112Z,101020.75
2017-12-29T13:52:48.039Z,101016.35
2017-12-29T13:55:14.088Z,101015.77
2017-12-29T13:57:40.116Z,101015.77
2017-12-29T14:00:06.081Z,101011.29
2017-12-29T14:02:32.018Z,101013.93
2017-12-29T14:04:57.924Z,101008.71
2017-12-29T14:07:23.983Z,101008.66
2017-12-29T14:09:49.969Z,101003.63
2017-12-29T14:12:15.913Z,100988.31
2017-12-29T14:14:41.871Z,100987.44
2017-12-29T14:17:07.911Z,100983.98
2017-12-29T14:19:33.855Z,100977.40
2017-12-29T14:21:59.763Z,100972.72
2017-12-29T14:24:25.753Z,100968.32
2017-12-29T14:26:51.670Z,100958.56
2017-12-29T14:29:17.650Z,100948.70
2017-12-29T14:31:43.735Z,100946.93
2017-12-29T14:34:09.755Z,100936.78
2017-12-29T14:36:36.090Z,100929.07
2017-12-29T14:39:02.138Z,100923.60
2017-12-29T14:41:28.069Z,100914.39
2017-12-29T14:43:54.083Z,100909.70
2017-12-29T14:46:20.013Z,100901.21
2017-12-29T14:48:47.079Z,100892.53
2017-12-29T14:51:13.118Z,100886.48
2017-12-29T14:53:40.521Z,100875.25
2017-12-29T14:56:06.516Z,100869.64
2017-12-29T14:58:32.437Z,100868.68
2017-12-29T15:00:58.449Z,100718.30
2017-12-29T15:03:24.368Z,100863.69
2017-12-29T15:05:50.371Z,100853.01
2017-12-29T15:08:16.379Z,100853.73
2017-12-29T15:10:42.310Z,100854.99
2017-12-29T15:13:08.263Z,100844.37
2017-12-29T15:15:34.263Z,100838.61
2017-12-29T15:18:00.207Z,100823.03
2017-12-29T15:20:26.114Z,100824.53
2017-12-29T15:22:52.071Z,100825.90
2017-12-29T15:25:18.199Z,100826.92
2017-12-29T15:27:44.182Z,100823.54
2017-12-29T15:30:10.129Z,100821.53
2017-12-29T15:32:36.094Z,100819.75
2017-12-29T15:35:02.243Z,100807.45
2017-12-29T15:37:28.237Z,100802.70
2017-12-29T15:39:54.163Z,100799.65
2017-12-29T15:42:20.106Z,100808.09
2017-12-29T15:44:46.019Z,100808.33
2017-12-29T15:47:11.903Z,100808.03
2017-12-29T15:49:37.845Z,100805.94
2017-12-29T15:52:03.799Z,100807.31
2017-12-29T15:54:29.758Z,100813.32
2017-12-29T15:56:55.762Z,100795.55
2017-12-29T15:59:21.699Z,100774.83
2017-12-29T16:04:18.067Z,100759.80
2017-12-29T16:06:44.063Z,100754.64
2017-12-29T16:09:11.080Z,100745.89
2017-12-29T16:11:37.035Z,100744.18
2017-12-29T16:14:02.993Z,100740.67
2017-12-29T16:16:28.968Z,100732.23
2017-12-29T16:18:54.931Z,100725.47
2017-12-29T16:21:20.907Z,100711.10
2017-12-29T16:23:46.828Z,100705.39
2017-12-29T16:26:12.762Z,100696.96
2017-12-29T16:28:38.731Z,100711.75
2017-12-29T16:31:04.643Z,100715.61
2017-12-29T16:33:30.538Z,100723.58
2017-12-29T16:35:56.480Z,100720.60
2017-12-29T16:38:22.460Z,100711.93
2017-12-29T16:40:48.358Z,100719.89
2017-12-29T16:43:14.307Z,100721.01
2017-12-29T16:45:40.278Z,100720.78
2017-12-29T16:48:06.263Z,100709.61
2017-12-29T16:50:32.275Z,100709.14
2017-12-29T16:52:58.221Z,100716.56
2017-12-29T16:55:24.111Z,100704.39
2017-12-29T16:57:50.040Z,100696.91
2017-12-29T17:00:16.023Z,100682.34
2017-12-29T17:02:41.979Z,100668.03
2017-12-29T17:05:07.873Z,100669.87
2017-12-29T17:07:33.804Z,100664.88
2017-12-29T17:12:30.263Z,100658.75
2017-12-29T17:14:56.596Z,100658.90
2017-12-29T17:17:22.495Z,100649.04
2017-12-29T17:19:48.388Z,100652.00
2017-12-29T17:22:14.314Z,100651.11
2017-12-29T17:24:40.252Z,100639.63
2017-12-29T17:27:06.231Z,100633.00
2017-12-29T17:29:32.152Z,100610.59
2017-12-29T17:31:58.226Z,100613.79
2017-12-29T17:34:24.284Z,100609.09
2017-12-29T17:36:50.210Z,100602.34
2017-12-29T17:39:16.182Z,100591.45
2017-12-29T17:41:42.115Z,100604.18
2017-12-29T17:47:37.591Z,100577.76
2017-12-29T17:50:04.796Z,100575.00
2017-12-29T17:52:31.997Z,100565.30
2017-12-29T17:54:59.080Z,100562.44
2017-12-29T17:57:26.124Z,100562.23
2017-12-29T17:59:53.143Z,100555.52
2017-12-29T18:02:20.328Z,100556.99
2017-12-29T18:04:47.306Z,100554.41
2017-12-29T18:07:14.390Z,100559.88
2017-12-29T18:09:41.576Z,100558.99
2017-12-29T18:12:08.535Z,100556.55
2017-12-29T18:14:35.791Z,100543.10
2017-12-29T18:17:02.778Z,100530.94
2017-12-29T18:19:29.742Z,100523.91
2017-12-29T18:21:57.258Z,100524.64
2017-12-29T18:24:24.421Z,100525.24
2017-12-29T18:26:51.535Z,100516.89
2017-12-29T18:29:18.578Z,100513.90
2017-12-29T18:31:45.602Z,100527.39
2017-12-29T18:34:12.670Z,100513.38
2017-12-29T18:36:39.714Z,100521.43
2017-12-29T18:39:06.780Z,100516.09
2017-12-29T18:41:33.798Z,100520.27
2017-12-29T18:44:00.842Z,100514.92
2017-12-29T18:46:27.774Z,100515.47
2017-12-29T18:48:54.674Z,100508.86
2017-12-29T18:51:21.584Z,100509.64
2017-12-29T18:53:48.451Z,100518.23
2017-12-29T18:56:15.379Z,100512.84
2017-12-29T18:58:42.243Z,100514.05
2017-12-29T19:01:09.130Z,100520.04
2017-12-29T19:03:36.038Z,100519.16
2017-12-29T19:06:02.920Z,100512.17
2017-12-29T19:08:29.791Z,100513.77
2017-12-29T19:10:56.917Z,100515.02
2017-12-29T19:13:24.132Z,100519.43
2017-12-29T19:15:51.100Z,100521.16
2017-12-29T19:18:18.023Z,100518.97
2017-12-29T19:20:44.999Z,100521.60
2017-12-29T19:23:12.963Z,100535.69
2017-12-29T19:25:39.859Z,100533.93
2017-12-29T19:28:06.831Z,100535.31
2017-12-29T19:30:33.809Z,100533.36
2017-12-29T19:33:00.798Z,100529.77
2017-12-29T19:35:27.672Z,100536.45
2017-12-29T19:37:54.547Z,100541.21
2017-12-29T19:40:21.449Z,100535.87
2017-12-29T19:42:48.359Z,100543.00
2017-12-29T19:45:15.230Z,100552.34
2017-12-29T19:47:42.462Z,100551.16
2017-12-29T19:50:09.766Z,100554.91
2017-12-29T19:52:36.879Z,100557.59
2017-12-29T19:55:04.003Z,100561.94
2017-12-29T19:57:31.660Z,100563.50
2017-12-29T19:59:58.555Z,100563.89
2017-12-29T20:02:25.427Z,100556.55
2017-12-29T20:04:52.506Z,100565.41
2017-12-29T20:07:19.418Z,100568.21
2017-12-29T20:09:46.280Z,100569.03
2017-12-29T20:12:13.180Z,100567.55
2017-12-29T20:14:40.067Z,100571.11
2017-12-29T20:17:06.987Z,100568.14
2017-12-29T20:19:33.856Z,100575.40
2017-12-29T20:23:15.067Z,100570.85
2017-12-29T20:25:42.230Z,100582.42
2017-12-29T20:28:09.084Z,100571.24
2017-12-29T20:30:35.968Z,100571.90
2017-12-29T20:33:02.851Z,100563.78
2017-12-29T20:35:29.743Z,100578.32
2017-12-29T20:37:56.609Z,100577.31
2017-12-29T20:40:23.495Z,100581.40
2017-12-29T20:42:50.388Z,100580.69
2017-12-29T20:45:17.322Z,100579.15
2017-12-29T20:47:44.259Z,100582.00
2017-12-29T20:50:11.199Z,100580.15
2017-12-29T20:52:38.327Z,100580.45
2017-12-29T20:55:06.313Z,100577.83
2017-12-29T20:57:33.175Z,100579.47
2017-12-29T21:00:00.147Z,100583.33
2017-12-29T21:02:27.102Z,100590.50
2017-12-29T21:04:54.102Z,100601.17
2017-12-29T21:07:21.060Z,100606.74
2017-12-29T21:09:48.247Z,100605.68
2017-12-29T21:12:15.227Z,100606.02
2017-12-29T21:14:42.162Z,100608.28
2017-12-29T21:17:09.156Z,100614.28
2017-12-29T21:19:36.187Z,100615.75
2017-12-29T21:22:03.131Z,100621.74
2017-12-29T21:24:30.079Z,100619.89
2017-12-29T21:26:56.985Z,100627.85
2017-12-29T21:29:23.963Z,100631.46
2017-12-29T21:31:50.920Z,100636.92
2017-12-29T21:34:17.851Z,100639.16
2017-12-29T21:36:44.776Z,100646.09
2017-12-29T21:39:11.718Z,100651.84
2017-12-29T21:41:38.618Z,100663.34
2017-12-29T21:44:05.580Z,100664.22
2017-12-29T21:46:32.575Z,100677.87
2017-12-29T21:48:59.474Z,100681.47
2017-12-29T21:51:26.411Z,100693.81
2017-12-29T21:53:53.334Z,100693.57
2017-12-29T21:56:20.294Z,100702.63
2017-12-29T21:58:47.295Z,100713.30
2017-12-29T22:01:14.187Z,100722.41
2017-12-29T22:03:41.078Z,100731.71
2017-12-29T22:06:08.028Z,100735.86
2017-12-29T22:08:35.015Z,100741.90
2017-12-29T22:11:02.015Z,100756.07
2017-12-29T22:13:29.019Z,100765.96
2017-12-29T22:15:56.027Z,100774.43
2017-12-29T22:18:22.899Z,100786.80
2017-12-29T22:20:49.875Z,100796.89
2017-12-29T22:23:16.757Z,100795.28
2017-12-29T22:25:43.661Z,100805.17
2017-12-29T22:28:10.596Z,100821.29
2017-12-29T22:30:37.565Z,100823.77
2017-12-29T22:33:04.508Z,100825.18
2017-12-29T22:35:31.454Z,100831.75
2017-12-29T22:37:58.460Z,100845.39
2017-12-29T22:40:25.346Z,100848.21
2017-12-29T22:42:52.219Z,100857.50
2017-12-29T22:45:19.334Z,100855.08
2017-12-29T22:47:46.283Z,100860.28
2017-12-29T22:50:13.219Z,100859.25
2017-12-29T22:52:40.199Z,100868.55
2017-12-29T22:55:07.071Z,100875.42
2017-12-29T22:57:34.016Z,100880.67
2017-12-29T23:00:00.910Z,100885.30
2017-12-29T23:02:27.883Z,100885.05
2017-12-29T23:04:54.831Z,100897.66
2017-12-29T23:07:21.806Z,100892.49
2017-12-29T23:09:48.772Z,100898.52
2017-12-29T23:12:15.675Z,100903.74
2017-12-29T23:14:42.831Z,100908.36
2017-12-29T23:17:09.783Z,100923.10
2017-12-29T23:19:36.698Z,100934.10
2017-12-29T23:22:03.615Z,100938.72
2017-12-29T23:24:30.582Z,100940.67
2017-12-29T23:26:57.523Z,100950.50
2017-12-29T23:29:24.438Z,100953.81
2017-12-29T23:31:51.338Z,100961.48
2017-12-29T23:34:18.231Z,100973.18
2017-12-29T23:36:45.175Z,100981.69
2017-12-29T23:39:12.154Z,100989.03
2017-12-29T23:41:39.093Z,100995.93
2017-12-29T23:44:05.966Z,101001.39
2017-12-29T23:46:33.036Z,101006.01
2017-12-29T23:49:00.004Z,101003.03
2017-12-29T23:51:26.968Z,101010.18
2017-12-29T23:53:53.883Z,101015.91
2017-12-29T23:56:20.851Z,101025.45
2017-12-29T23:58:47.791Z,101034.18
